sensor_id;sensor_type;location;lat;lon;timestamp;temperature;humidity
20091;DHT22;10205;49.678;6.560;2023-05-21T00:00:42;23.30;43.90
20091;DHT22;10205;49.678;6.560;2023-05-21T00:03:09;23.30;44.00
20091;DHT22;10205;49.678;6.560;2023-05-21T00:05:38;23.30;44.00
20091;DHT22;10205;49.678;6.560;2023-05-21T00:08:06;23.20;44.00
20091;DHT22;10205;49.678;6.560;2023-05-21T00:10:33;23.20;44.20
20091;DHT22;10205;49.678;6.560;2023-05-21T00:13:00;23.20;44.80
20091;DHT22;10205;49.678;6.560;2023-05-21T00:15:27;23.20;44.10
20091;DHT22;10205;49.678;6.560;2023-05-21T00:17:55;23.10;44.20
20091;DHT22;10205;49.678;6.560;2023-05-21T00:20:23;23.10;44.20
20091;DHT22;10205;49.678;6.560;2023-05-21T00:22:50;23.10;44.20
20091;DHT22;10205;49.678;6.560;2023-05-21T00:25:17;23.00;44.20
20091;DHT22;10205;49.678;6.560;2023-05-21T00:27:44;23.10;44.40
20091;DHT22;10205;49.678;6.560;2023-05-21T00:30:11;23.00;44.30
20091;DHT22;10205;49.678;6.560;2023-05-21T00:32:38;23.00;44.40
20091;DHT22;10205;49.678;6.560;2023-05-21T00:35:08;23.00;44.30
20091;DHT22;10205;49.678;6.560;2023-05-21T00:37:35;22.90;44.40
20091;DHT22;10205;49.678;6.560;2023-05-21T00:40:03;22.90;44.40
20091;DHT22;10205;49.678;6.560;2023-05-21T00:42:32;22.90;44.40
20091;DHT22;10205;49.678;6.560;2023-05-21T00:45:04;22.90;44.40
20091;DHT22;10205;49.678;6.560;2023-05-21T00:47:33;22.90;44.60
20091;DHT22;10205;49.678;6.560;2023-05-21T00:50:02;22.90;44.60
20091;DHT22;10205;49.678;6.560;2023-05-21T00:52:34;22.80;44.60
20091;DHT22;10205;49.678;6.560;2023-05-21T00:55:07;22.80;44.70
20091;DHT22;10205;49.678;6.560;2023-05-21T00:57:35;22.80;44.60
20091;DHT22;10205;49.678;6.560;2023-05-21T01:00:05;22.80;44.70
20091;DHT22;10205;49.678;6.560;2023-05-21T01:02:35;22.70;44.70
20091;DHT22;10205;49.678;6.560;2023-05-21T01:05:03;22.70;44.70
20091;DHT22;10205;49.678;6.560;2023-05-21T01:07:31;22.70;44.80
20091;DHT22;10205;49.678;6.560;2023-05-21T01:10:02;22.70;44.80
20091;DHT22;10205;49.678;6.560;2023-05-21T01:12:31;22.60;44.80
20091;DHT22;10205;49.678;6.560;2023-05-21T01:14:59;22.60;44.90
20091;DHT22;10205;49.678;6.560;2023-05-21T01:17:29;22.60;44.90
20091;DHT22;10205;49.678;6.560;2023-05-21T01:19:56;22.60;44.90
20091;DHT22;10205;49.678;6.560;2023-05-21T01:22:25;22.60;45.00
20091;DHT22;10205;49.678;6.560;2023-05-21T01:24:58;22.50;45.00
20091;DHT22;10205;49.678;6.560;2023-05-21T01:27:27;22.50;45.10
20091;DHT22;10205;49.678;6.560;2023-05-21T01:29:54;22.50;45.10
20091;DHT22;10205;49.678;6.560;2023-05-21T01:32:26;22.50;45.20
20091;DHT22;10205;49.678;6.560;2023-05-21T01:35:01;22.40;45.20
20091;DHT22;10205;49.678;6.560;2023-05-21T01:37:35;22.40;45.20
20091;DHT22;10205;49.678;6.560;2023-05-21T01:40:10;22.40;45.30
20091;DHT22;10205;49.678;6.560;2023-05-21T01:42:42;22.40;45.40
20091;DHT22;10205;49.678;6.560;2023-05-21T01:45:13;22.40;45.40
20091;DHT22;10205;49.678;6.560;2023-05-21T01:47:44;22.30;45.40
20091;DHT22;10205;49.678;6.560;2023-05-21T01:50:15;22.30;45.50
20091;DHT22;10205;49.678;6.560;2023-05-21T01:52:51;22.30;45.50
20091;DHT22;10205;49.678;6.560;2023-05-21T01:55:22;22.20;45.60
20091;DHT22;10205;49.678;6.560;2023-05-21T01:57:50;22.20;45.60
20091;DHT22;10205;49.678;6.560;2023-05-21T02:00:18;22.20;45.60
20091;DHT22;10205;49.678;6.560;2023-05-21T02:02:46;22.20;45.60
20091;DHT22;10205;49.678;6.560;2023-05-21T02:05:13;22.20;45.60
20091;DHT22;10205;49.678;6.560;2023-05-21T02:07:41;22.10;45.60
20091;DHT22;10205;49.678;6.560;2023-05-21T02:10:10;22.10;45.70
20091;DHT22;10205;49.678;6.560;2023-05-21T02:12:38;22.10;45.80
20091;DHT22;10205;49.678;6.560;2023-05-21T02:15:06;22.10;45.80
20091;DHT22;10205;49.678;6.560;2023-05-21T02:17:34;22.00;45.80
20091;DHT22;10205;49.678;6.560;2023-05-21T02:20:04;22.00;45.90
20091;DHT22;10205;49.678;6.560;2023-05-21T02:22:36;21.90;46.00
20091;DHT22;10205;49.678;6.560;2023-05-21T02:25:04;21.90;46.00
20091;DHT22;10205;49.678;6.560;2023-05-21T02:27:33;21.90;46.00
20091;DHT22;10205;49.678;6.560;2023-05-21T02:30:03;21.90;46.10
20091;DHT22;10205;49.678;6.560;2023-05-21T02:32:32;21.80;46.10
20091;DHT22;10205;49.678;6.560;2023-05-21T02:35:01;21.80;46.10
20091;DHT22;10205;49.678;6.560;2023-05-21T02:37:30;21.80;46.10
20091;DHT22;10205;49.678;6.560;2023-05-21T02:39:59;21.80;46.20
20091;DHT22;10205;49.678;6.560;2023-05-21T02:42:28;21.80;46.40
20091;DHT22;10205;49.678;6.560;2023-05-21T02:44:55;21.70;46.30
20091;DHT22;10205;49.678;6.560;2023-05-21T02:47:24;21.70;46.40
20091;DHT22;10205;49.678;6.560;2023-05-21T02:49:52;21.70;46.40
20091;DHT22;10205;49.678;6.560;2023-05-21T02:52:20;21.60;46.40
20091;DHT22;10205;49.678;6.560;2023-05-21T02:54:48;21.60;46.50
20091;DHT22;10205;49.678;6.560;2023-05-21T02:57:15;21.60;46.60
20091;DHT22;10205;49.678;6.560;2023-05-21T02:59:43;21.60;46.60
20091;DHT22;10205;49.678;6.560;2023-05-21T03:02:10;21.60;46.60
20091;DHT22;10205;49.678;6.560;2023-05-21T03:04:38;21.50;47.40
20091;DHT22;10205;49.678;6.560;2023-05-21T03:07:10;21.50;47.30
20091;DHT22;10205;49.678;6.560;2023-05-21T03:09:38;21.50;47.00
20091;DHT22;10205;49.678;6.560;2023-05-21T03:12:05;21.50;47.10
20091;DHT22;10205;49.678;6.560;2023-05-21T03:14:33;21.50;47.30
20091;DHT22;10205;49.678;6.560;2023-05-21T03:17:01;21.40;47.20
20091;DHT22;10205;49.678;6.560;2023-05-21T03:19:30;21.40;47.30
20091;DHT22;10205;49.678;6.560;2023-05-21T03:22:00;21.30;47.50
20091;DHT22;10205;49.678;6.560;2023-05-21T03:24:28;21.30;47.70
20091;DHT22;10205;49.678;6.560;2023-05-21T03:26:56;21.30;47.60
20091;DHT22;10205;49.678;6.560;2023-05-21T03:29:23;21.30;47.60
20091;DHT22;10205;49.678;6.560;2023-05-21T03:31:51;21.20;48.00
20091;DHT22;10205;49.678;6.560;2023-05-21T03:34:18;21.20;47.80
20091;DHT22;10205;49.678;6.560;2023-05-21T03:36:45;21.20;47.90
20091;DHT22;10205;49.678;6.560;2023-05-21T03:39:14;21.10;47.80
20091;DHT22;10205;49.678;6.560;2023-05-21T03:41:41;21.10;47.90
20091;DHT22;10205;49.678;6.560;2023-05-21T03:44:08;21.10;47.90
20091;DHT22;10205;49.678;6.560;2023-05-21T03:46:36;21.10;48.20
20091;DHT22;10205;49.678;6.560;2023-05-21T03:49:03;21.00;48.20
20091;DHT22;10205;49.678;6.560;2023-05-21T03:51:30;21.00;48.30
20091;DHT22;10205;49.678;6.560;2023-05-21T03:53:57;21.00;48.30
20091;DHT22;10205;49.678;6.560;2023-05-21T03:56:27;21.00;48.20
20091;DHT22;10205;49.678;6.560;2023-05-21T03:58:54;21.00;48.20
20091;DHT22;10205;49.678;6.560;2023-05-21T04:01:21;21.00;48.40
20091;DHT22;10205;49.678;6.560;2023-05-21T04:03:48;20.90;48.30
20091;DHT22;10205;49.678;6.560;2023-05-21T04:06:15;20.90;49.00
20091;DHT22;10205;49.678;6.560;2023-05-21T04:08:43;20.90;49.00
20091;DHT22;10205;49.678;6.560;2023-05-21T04:11:10;20.90;49.10
20091;DHT22;10205;49.678;6.560;2023-05-21T04:13:39;20.80;48.80
20091;DHT22;10205;49.678;6.560;2023-05-21T04:16:06;20.80;48.90
20091;DHT22;10205;49.678;6.560;2023-05-21T04:18:33;20.80;48.80
20091;DHT22;10205;49.678;6.560;2023-05-21T04:21:00;20.80;49.50
20091;DHT22;10205;49.678;6.560;2023-05-21T04:23:27;20.70;49.60
20091;DHT22;10205;49.678;6.560;2023-05-21T04:25:54;20.70;49.10
20091;DHT22;10205;49.678;6.560;2023-05-21T04:28:21;20.70;49.10
20091;DHT22;10205;49.678;6.560;2023-05-21T04:30:50;20.70;49.10
20091;DHT22;10205;49.678;6.560;2023-05-21T04:33:17;20.60;49.20
20091;DHT22;10205;49.678;6.560;2023-05-21T04:35:45;20.70;49.20
20091;DHT22;10205;49.678;6.560;2023-05-21T04:38:14;20.60;49.20
20091;DHT22;10205;49.678;6.560;2023-05-21T04:40:44;20.60;49.20
20091;DHT22;10205;49.678;6.560;2023-05-21T04:43:11;20.60;49.30
20091;DHT22;10205;49.678;6.560;2023-05-21T04:45:38;20.60;49.80
20091;DHT22;10205;49.678;6.560;2023-05-21T04:48:07;20.60;50.20
20091;DHT22;10205;49.678;6.560;2023-05-21T04:50:34;20.60;49.60
20091;DHT22;10205;49.678;6.560;2023-05-21T04:53:01;20.50;49.60
20091;DHT22;10205;49.678;6.560;2023-05-21T04:55:28;20.50;49.90
20091;DHT22;10205;49.678;6.560;2023-05-21T04:57:55;20.50;50.00
20091;DHT22;10205;49.678;6.560;2023-05-21T05:00:22;20.40;50.00
20091;DHT22;10205;49.678;6.560;2023-05-21T05:02:50;20.40;50.10
20091;DHT22;10205;49.678;6.560;2023-05-21T05:05:19;20.40;50.20
20091;DHT22;10205;49.678;6.560;2023-05-21T05:07:46;20.40;50.50
20091;DHT22;10205;49.678;6.560;2023-05-21T05:10:13;20.40;50.30
20091;DHT22;10205;49.678;6.560;2023-05-21T05:12:40;20.40;50.40
20091;DHT22;10205;49.678;6.560;2023-05-21T05:15:08;20.30;50.30
20091;DHT22;10205;49.678;6.560;2023-05-21T05:17:36;20.30;50.40
20091;DHT22;10205;49.678;6.560;2023-05-21T05:20:05;20.30;50.40
20091;DHT22;10205;49.678;6.560;2023-05-21T05:22:35;20.30;50.60
20091;DHT22;10205;49.678;6.560;2023-05-21T05:25:03;20.30;50.60
20091;DHT22;10205;49.678;6.560;2023-05-21T05:27:30;20.30;50.80
20091;DHT22;10205;49.678;6.560;2023-05-21T05:29:57;20.30;50.80
20091;DHT22;10205;49.678;6.560;2023-05-21T05:32:24;20.20;50.70
20091;DHT22;10205;49.678;6.560;2023-05-21T05:34:51;20.20;50.70
20091;DHT22;10205;49.678;6.560;2023-05-21T05:37:18;20.20;51.40
20091;DHT22;10205;49.678;6.560;2023-05-21T05:39:47;20.20;51.10
20091;DHT22;10205;49.678;6.560;2023-05-21T05:42:14;20.20;51.40
20091;DHT22;10205;49.678;6.560;2023-05-21T05:44:41;20.10;51.00
20091;DHT22;10205;49.678;6.560;2023-05-21T05:47:08;20.20;51.40
20091;DHT22;10205;49.678;6.560;2023-05-21T05:49:36;20.10;51.70
20091;DHT22;10205;49.678;6.560;2023-05-21T05:52:03;20.10;52.00
20091;DHT22;10205;49.678;6.560;2023-05-21T05:54:31;20.10;52.20
20091;DHT22;10205;49.678;6.560;2023-05-21T05:56:59;20.10;52.30
20091;DHT22;10205;49.678;6.560;2023-05-21T05:59:26;20.10;52.20
20091;DHT22;10205;49.678;6.560;2023-05-21T06:01:53;20.10;52.30
20091;DHT22;10205;49.678;6.560;2023-05-21T06:04:20;20.00;52.40
20091;DHT22;10205;49.678;6.560;2023-05-21T06:06:47;20.00;52.60
20091;DHT22;10205;49.678;6.560;2023-05-21T06:09:14;20.00;52.60
20091;DHT22;10205;49.678;6.560;2023-05-21T06:11:41;20.00;52.20
20091;DHT22;10205;49.678;6.560;2023-05-21T06:14:09;20.00;52.50
20091;DHT22;10205;49.678;6.560;2023-05-21T06:16:36;20.00;52.50
20091;DHT22;10205;49.678;6.560;2023-05-21T06:19:03;20.00;52.30
20091;DHT22;10205;49.678;6.560;2023-05-21T06:21:31;20.00;52.40
20091;DHT22;10205;49.678;6.560;2023-05-21T06:23:58;20.00;52.40
20091;DHT22;10205;49.678;6.560;2023-05-21T06:26:25;20.00;52.50
20091;DHT22;10205;49.678;6.560;2023-05-21T06:28:52;20.00;52.60
20091;DHT22;10205;49.678;6.560;2023-05-21T06:31:20;20.00;53.00
20091;DHT22;10205;49.678;6.560;2023-05-21T06:33:47;20.00;53.10
20091;DHT22;10205;49.678;6.560;2023-05-21T06:36:15;20.00;53.20
20091;DHT22;10205;49.678;6.560;2023-05-21T06:38:42;20.00;53.00
20091;DHT22;10205;49.678;6.560;2023-05-21T06:41:09;20.00;53.20
20091;DHT22;10205;49.678;6.560;2023-05-21T06:43:36;20.00;53.00
20091;DHT22;10205;49.678;6.560;2023-05-21T06:46:03;20.00;53.30
20091;DHT22;10205;49.678;6.560;2023-05-21T06:48:32;20.00;53.10
20091;DHT22;10205;49.678;6.560;2023-05-21T06:50:59;20.10;53.50
20091;DHT22;10205;49.678;6.560;2023-05-21T06:53:26;20.10;53.60
20091;DHT22;10205;49.678;6.560;2023-05-21T06:55:53;20.10;54.30
20091;DHT22;10205;49.678;6.560;2023-05-21T06:58:20;20.10;53.70
20091;DHT22;10205;49.678;6.560;2023-05-21T07:00:47;20.10;53.80
20091;DHT22;10205;49.678;6.560;2023-05-21T07:03:14;20.10;54.00
20091;DHT22;10205;49.678;6.560;2023-05-21T07:05:43;20.10;53.90
20091;DHT22;10205;49.678;6.560;2023-05-21T07:08:10;20.10;54.20
20091;DHT22;10205;49.678;6.560;2023-05-21T07:10:37;20.20;54.10
20091;DHT22;10205;49.678;6.560;2023-05-21T07:13:04;20.20;54.10
20091;DHT22;10205;49.678;6.560;2023-05-21T07:15:31;20.20;54.10
20091;DHT22;10205;49.678;6.560;2023-05-21T07:17:58;20.20;54.10
20091;DHT22;10205;49.678;6.560;2023-05-21T07:20:25;20.20;54.20
20091;DHT22;10205;49.678;6.560;2023-05-21T07:22:53;20.30;54.80
20091;DHT22;10205;49.678;6.560;2023-05-21T07:25:21;20.30;54.70
20091;DHT22;10205;49.678;6.560;2023-05-21T07:27:48;20.40;54.80
20091;DHT22;10205;49.678;6.560;2023-05-21T07:30:15;20.40;54.70
20091;DHT22;10205;49.678;6.560;2023-05-21T07:32:42;20.50;54.90
20091;DHT22;10205;49.678;6.560;2023-05-21T07:35:10;20.50;54.90
20091;DHT22;10205;49.678;6.560;2023-05-21T07:37:37;20.50;55.00
20091;DHT22;10205;49.678;6.560;2023-05-21T07:40:07;20.60;54.90
20091;DHT22;10205;49.678;6.560;2023-05-21T07:42:34;20.60;54.80
20091;DHT22;10205;49.678;6.560;2023-05-21T07:45:01;20.60;54.80
20091;DHT22;10205;49.678;6.560;2023-05-21T07:47:28;20.70;54.90
20091;DHT22;10205;49.678;6.560;2023-05-21T07:49:55;20.70;54.60
20091;DHT22;10205;49.678;6.560;2023-05-21T07:52:23;20.80;54.90
20091;DHT22;10205;49.678;6.560;2023-05-21T07:54:50;20.80;54.80
20091;DHT22;10205;49.678;6.560;2023-05-21T07:57:18;20.90;54.80
20091;DHT22;10205;49.678;6.560;2023-05-21T07:59:46;20.90;54.90
20091;DHT22;10205;49.678;6.560;2023-05-21T08:02:13;21.00;54.80
20091;DHT22;10205;49.678;6.560;2023-05-21T08:04:40;21.10;54.70
20091;DHT22;10205;49.678;6.560;2023-05-21T08:07:08;21.10;54.60
20091;DHT22;10205;49.678;6.560;2023-05-21T08:09:37;21.20;54.70
20091;DHT22;10205;49.678;6.560;2023-05-21T08:12:04;21.30;54.80
20091;DHT22;10205;49.678;6.560;2023-05-21T08:14:33;21.30;54.70
20091;DHT22;10205;49.678;6.560;2023-05-21T08:17:01;21.40;55.00
20091;DHT22;10205;49.678;6.560;2023-05-21T08:19:28;21.40;54.80
20091;DHT22;10205;49.678;6.560;2023-05-21T08:21:55;21.50;54.60
20091;DHT22;10205;49.678;6.560;2023-05-21T08:24:22;21.60;54.70
20091;DHT22;10205;49.678;6.560;2023-05-21T08:26:50;21.70;54.60
20091;DHT22;10205;49.678;6.560;2023-05-21T08:29:18;21.70;54.80
20091;DHT22;10205;49.678;6.560;2023-05-21T08:31:46;21.80;54.50
20091;DHT22;10205;49.678;6.560;2023-05-21T08:34:13;21.90;54.50
20091;DHT22;10205;49.678;6.560;2023-05-21T08:36:41;21.90;54.40
20091;DHT22;10205;49.678;6.560;2023-05-21T08:39:10;22.00;54.40
20091;DHT22;10205;49.678;6.560;2023-05-21T08:41:38;22.10;54.10
20091;DHT22;10205;49.678;6.560;2023-05-21T08:44:11;22.10;54.10
20091;DHT22;10205;49.678;6.560;2023-05-21T08:46:39;22.20;54.00
20091;DHT22;10205;49.678;6.560;2023-05-21T08:49:11;22.30;53.90
20091;DHT22;10205;49.678;6.560;2023-05-21T08:51:38;22.40;53.80
20091;DHT22;10205;49.678;6.560;2023-05-21T08:54:06;22.50;53.80
20091;DHT22;10205;49.678;6.560;2023-05-21T08:56:34;22.60;53.60
20091;DHT22;10205;49.678;6.560;2023-05-21T08:59:05;22.60;53.40
20091;DHT22;10205;49.678;6.560;2023-05-21T09:01:33;22.70;53.40
20091;DHT22;10205;49.678;6.560;2023-05-21T09:04:03;22.80;53.40
20091;DHT22;10205;49.678;6.560;2023-05-21T09:06:32;22.80;53.30
20091;DHT22;10205;49.678;6.560;2023-05-21T09:09:06;22.90;53.20
20091;DHT22;10205;49.678;6.560;2023-05-21T09:11:40;23.00;53.90
20091;DHT22;10205;49.678;6.560;2023-05-21T09:14:09;23.10;53.60
20091;DHT22;10205;49.678;6.560;2023-05-21T09:16:37;23.20;52.90
20091;DHT22;10205;49.678;6.560;2023-05-21T09:19:04;23.20;52.80
20091;DHT22;10205;49.678;6.560;2023-05-21T09:21:33;23.30;52.70
20091;DHT22;10205;49.678;6.560;2023-05-21T09:24:00;23.40;52.90
20091;DHT22;10205;49.678;6.560;2023-05-21T09:26:27;23.40;52.70
20091;DHT22;10205;49.678;6.560;2023-05-21T09:28:56;23.50;52.70
20091;DHT22;10205;49.678;6.560;2023-05-21T09:31:25;23.60;52.50
20091;DHT22;10205;49.678;6.560;2023-05-21T09:33:52;23.70;52.40
20091;DHT22;10205;49.678;6.560;2023-05-21T09:36:21;23.80;52.40
20091;DHT22;10205;49.678;6.560;2023-05-21T09:38:50;23.80;52.30
20091;DHT22;10205;49.678;6.560;2023-05-21T09:41:17;23.90;52.10
20091;DHT22;10205;49.678;6.560;2023-05-21T09:43:46;24.00;52.10
20091;DHT22;10205;49.678;6.560;2023-05-21T09:46:13;24.10;52.00
20091;DHT22;10205;49.678;6.560;2023-05-21T09:48:41;24.20;51.80
20091;DHT22;10205;49.678;6.560;2023-05-21T09:51:10;24.30;51.80
20091;DHT22;10205;49.678;6.560;2023-05-21T09:53:50;24.40;51.60
20091;DHT22;10205;49.678;6.560;2023-05-21T09:56:20;24.50;51.60
20091;DHT22;10205;49.678;6.560;2023-05-21T09:58:51;24.60;51.40
20091;DHT22;10205;49.678;6.560;2023-05-21T10:01:20;24.70;51.40
20091;DHT22;10205;49.678;6.560;2023-05-21T10:03:54;24.70;51.20
20091;DHT22;10205;49.678;6.560;2023-05-21T10:06:24;24.80;51.00
20091;DHT22;10205;49.678;6.560;2023-05-21T10:08:55;25.00;51.10
20091;DHT22;10205;49.678;6.560;2023-05-21T10:11:24;25.00;51.00
20091;DHT22;10205;49.678;6.560;2023-05-21T10:13:56;25.10;50.80
20091;DHT22;10205;49.678;6.560;2023-05-21T10:16:26;25.20;50.60
20091;DHT22;10205;49.678;6.560;2023-05-21T10:18:58;25.30;50.70
20091;DHT22;10205;49.678;6.560;2023-05-21T10:21:26;25.40;50.40
20091;DHT22;10205;49.678;6.560;2023-05-21T10:23:56;25.50;50.20
20091;DHT22;10205;49.678;6.560;2023-05-21T10:26:24;25.60;50.00
20091;DHT22;10205;49.678;6.560;2023-05-21T10:28:55;25.70;50.00
20091;DHT22;10205;49.678;6.560;2023-05-21T10:31:25;25.80;49.70
20091;DHT22;10205;49.678;6.560;2023-05-21T10:33:54;25.90;49.60
20091;DHT22;10205;49.678;6.560;2023-05-21T10:36:22;26.00;49.20
20091;DHT22;10205;49.678;6.560;2023-05-21T10:38:50;26.00;49.70
20091;DHT22;10205;49.678;6.560;2023-05-21T10:41:19;26.20;49.00
20091;DHT22;10205;49.678;6.560;2023-05-21T10:43:55;26.20;48.60
20091;DHT22;10205;49.678;6.560;2023-05-21T10:46:59;26.30;48.50
20091;DHT22;10205;49.678;6.560;2023-05-21T10:53:03;26.50;47.90
20091;DHT22;10205;49.678;6.560;2023-05-21T10:55:49;26.60;47.80
20091;DHT22;10205;49.678;6.560;2023-05-21T10:58:48;26.70;47.90
20091;DHT22;10205;49.678;6.560;2023-05-21T11:01:30;26.80;47.50
20091;DHT22;10205;49.678;6.560;2023-05-21T11:04:00;26.90;47.70
20091;DHT22;10205;49.678;6.560;2023-05-21T11:06:27;26.90;47.60
20091;DHT22;10205;49.678;6.560;2023-05-21T11:08:55;27.00;47.50
20091;DHT22;10205;49.678;6.560;2023-05-21T11:11:41;27.00;47.60
20091;DHT22;10205;49.678;6.560;2023-05-21T11:14:32;27.10;47.10
20091;DHT22;10205;49.678;6.560;2023-05-21T11:17:09;27.20;46.80
20091;DHT22;10205;49.678;6.560;2023-05-21T11:19:39;27.30;46.60
20091;DHT22;10205;49.678;6.560;2023-05-21T11:22:09;27.40;46.70
20091;DHT22;10205;49.678;6.560;2023-05-21T11:24:47;27.40;46.30
20091;DHT22;10205;49.678;6.560;2023-05-21T11:27:29;27.50;46.00
20091;DHT22;10205;49.678;6.560;2023-05-21T11:30:03;27.50;45.90
20091;DHT22;10205;49.678;6.560;2023-05-21T11:32:31;27.70;45.70
20091;DHT22;10205;49.678;6.560;2023-05-21T11:35:02;27.70;45.80
20091;DHT22;10205;49.678;6.560;2023-05-21T11:37:30;27.80;45.50
20091;DHT22;10205;49.678;6.560;2023-05-21T11:40:32;27.90;45.00
20091;DHT22;10205;49.678;6.560;2023-05-21T11:43:01;28.00;45.00
20091;DHT22;10205;49.678;6.560;2023-05-21T11:45:31;28.10;45.30
20091;DHT22;10205;49.678;6.560;2023-05-21T11:47:59;28.10;44.80
20091;DHT22;10205;49.678;6.560;2023-05-21T11:50:26;28.20;44.90
20091;DHT22;10205;49.678;6.560;2023-05-21T11:52:55;28.30;44.70
20091;DHT22;10205;49.678;6.560;2023-05-21T11:55:24;28.40;44.70
20091;DHT22;10205;49.678;6.560;2023-05-21T11:57:54;28.40;44.20
20091;DHT22;10205;49.678;6.560;2023-05-21T12:00:21;28.50;43.50
20091;DHT22;10205;49.678;6.560;2023-05-21T12:02:51;28.50;43.70
20091;DHT22;10205;49.678;6.560;2023-05-21T12:05:20;28.60;43.60
20091;DHT22;10205;49.678;6.560;2023-05-21T12:07:47;28.70;43.70
20091;DHT22;10205;49.678;6.560;2023-05-21T12:10:15;28.80;43.20
20091;DHT22;10205;49.678;6.560;2023-05-21T12:12:45;28.90;43.00
20091;DHT22;10205;49.678;6.560;2023-05-21T12:15:13;28.90;42.90
20091;DHT22;10205;49.678;6.560;2023-05-21T12:17:40;29.00;42.60
20091;DHT22;10205;49.678;6.560;2023-05-21T12:20:14;29.00;42.40
20091;DHT22;10205;49.678;6.560;2023-05-21T12:22:41;29.10;42.00
20091;DHT22;10205;49.678;6.560;2023-05-21T12:25:08;29.20;42.40
20091;DHT22;10205;49.678;6.560;2023-05-21T12:27:37;29.20;42.20
20091;DHT22;10205;49.678;6.560;2023-05-21T12:30:05;29.30;41.70
20091;DHT22;10205;49.678;6.560;2023-05-21T12:32:34;29.30;41.50
20091;DHT22;10205;49.678;6.560;2023-05-21T12:35:02;29.40;41.00
20091;DHT22;10205;49.678;6.560;2023-05-21T12:37:31;29.40;41.00
20091;DHT22;10205;49.678;6.560;2023-05-21T12:40:01;29.50;40.80
20091;DHT22;10205;49.678;6.560;2023-05-21T12:42:32;29.60;40.80
20091;DHT22;10205;49.678;6.560;2023-05-21T12:45:04;29.60;40.70
20091;DHT22;10205;49.678;6.560;2023-05-21T12:47:32;29.70;40.40
20091;DHT22;10205;49.678;6.560;2023-05-21T12:50:01;29.70;40.40
20091;DHT22;10205;49.678;6.560;2023-05-21T12:52:31;29.80;40.50
20091;DHT22;10205;49.678;6.560;2023-05-21T12:54:58;29.90;40.60
20091;DHT22;10205;49.678;6.560;2023-05-21T12:57:27;29.90;40.40
20091;DHT22;10205;49.678;6.560;2023-05-21T13:00:04;30.00;40.50
20091;DHT22;10205;49.678;6.560;2023-05-21T13:02:34;30.10;40.30
20091;DHT22;10205;49.678;6.560;2023-05-21T13:05:05;30.20;40.30
20091;DHT22;10205;49.678;6.560;2023-05-21T13:07:36;30.30;39.80
20091;DHT22;10205;49.678;6.560;2023-05-21T13:10:05;30.30;39.80
20091;DHT22;10205;49.678;6.560;2023-05-21T13:12:34;30.40;39.90
20091;DHT22;10205;49.678;6.560;2023-05-21T13:15:02;30.40;39.70
20091;DHT22;10205;49.678;6.560;2023-05-21T13:17:30;30.40;39.70
20091;DHT22;10205;49.678;6.560;2023-05-21T13:20:05;30.60;39.60
20091;DHT22;10205;49.678;6.560;2023-05-21T13:22:36;30.60;39.40
20091;DHT22;10205;49.678;6.560;2023-05-21T13:25:07;30.70;39.70
20091;DHT22;10205;49.678;6.560;2023-05-21T13:27:35;30.80;39.80
20091;DHT22;10205;49.678;6.560;2023-05-21T13:30:04;30.90;39.70
20091;DHT22;10205;49.678;6.560;2023-05-21T13:32:32;30.90;39.70
20091;DHT22;10205;49.678;6.560;2023-05-21T13:34:59;31.00;39.50
20091;DHT22;10205;49.678;6.560;2023-05-21T13:37:26;31.00;39.50
20091;DHT22;10205;49.678;6.560;2023-05-21T13:39:55;31.10;39.70
20091;DHT22;10205;49.678;6.560;2023-05-21T13:42:22;31.20;39.60
20091;DHT22;10205;49.678;6.560;2023-05-21T13:44:49;31.20;39.60
20091;DHT22;10205;49.678;6.560;2023-05-21T13:47:16;31.30;39.40
20091;DHT22;10205;49.678;6.560;2023-05-21T13:49:44;31.30;39.20
20091;DHT22;10205;49.678;6.560;2023-05-21T13:52:11;31.40;39.10
20091;DHT22;10205;49.678;6.560;2023-05-21T13:54:38;31.40;39.00
20091;DHT22;10205;49.678;6.560;2023-05-21T13:57:07;31.50;39.10
20091;DHT22;10205;49.678;6.560;2023-05-21T13:59:35;31.50;38.90
20091;DHT22;10205;49.678;6.560;2023-05-21T14:02:02;31.50;38.80
20091;DHT22;10205;49.678;6.560;2023-05-21T14:04:29;31.60;38.80
20091;DHT22;10205;49.678;6.560;2023-05-21T14:06:56;31.60;38.80
20091;DHT22;10205;49.678;6.560;2023-05-21T14:09:23;31.60;38.80
20091;DHT22;10205;49.678;6.560;2023-05-21T14:11:51;31.70;38.80
20091;DHT22;10205;49.678;6.560;2023-05-21T14:14:20;31.70;38.60
20091;DHT22;10205;49.678;6.560;2023-05-21T14:16:48;31.70;38.60
20091;DHT22;10205;49.678;6.560;2023-05-21T14:19:15;31.80;38.70
20091;DHT22;10205;49.678;6.560;2023-05-21T14:21:43;31.70;38.60
20091;DHT22;10205;49.678;6.560;2023-05-21T14:24:10;31.80;38.70
20091;DHT22;10205;49.678;6.560;2023-05-21T14:26:39;31.80;38.70
20091;DHT22;10205;49.678;6.560;2023-05-21T14:29:07;31.80;38.60
20091;DHT22;10205;49.678;6.560;2023-05-21T14:31:36;31.80;38.60
20091;DHT22;10205;49.678;6.560;2023-05-21T14:34:04;31.90;38.50
20091;DHT22;10205;49.678;6.560;2023-05-21T14:36:33;31.90;38.70
20091;DHT22;10205;49.678;6.560;2023-05-21T14:39:01;31.90;38.50
20091;DHT22;10205;49.678;6.560;2023-05-21T14:41:28;31.90;38.40
20091;DHT22;10205;49.678;6.560;2023-05-21T14:43:55;31.90;38.40
20091;DHT22;10205;49.678;6.560;2023-05-21T14:46:22;31.90;38.40
20091;DHT22;10205;49.678;6.560;2023-05-21T14:48:51;31.90;38.40
20091;DHT22;10205;49.678;6.560;2023-05-21T14:51:19;32.00;38.70
20091;DHT22;10205;49.678;6.560;2023-05-21T14:53:47;32.00;38.60
20091;DHT22;10205;49.678;6.560;2023-05-21T14:56:14;31.90;38.50
20091;DHT22;10205;49.678;6.560;2023-05-21T14:58:41;31.90;38.40
20091;DHT22;10205;49.678;6.560;2023-05-21T15:01:08;32.00;38.50
20091;DHT22;10205;49.678;6.560;2023-05-21T15:03:35;32.00;38.50
20091;DHT22;10205;49.678;6.560;2023-05-21T15:06:04;32.00;38.50
20091;DHT22;10205;49.678;6.560;2023-05-21T15:08:31;32.00;39.40
20091;DHT22;10205;49.678;6.560;2023-05-21T15:10:58;32.00;38.60
20091;DHT22;10205;49.678;6.560;2023-05-21T15:13:25;32.00;38.60
20091;DHT22;10205;49.678;6.560;2023-05-21T15:15:55;32.00;38.70
20091;DHT22;10205;49.678;6.560;2023-05-21T15:18:28;32.00;38.50
20091;DHT22;10205;49.678;6.560;2023-05-21T15:20:58;32.00;38.60
20091;DHT22;10205;49.678;6.560;2023-05-21T15:23:33;32.00;38.60
20091;DHT22;10205;49.678;6.560;2023-05-21T15:26:00;32.00;38.70
20091;DHT22;10205;49.678;6.560;2023-05-21T15:28:27;32.00;38.70
20091;DHT22;10205;49.678;6.560;2023-05-21T15:30:54;32.00;38.90
20091;DHT22;10205;49.678;6.560;2023-05-21T15:33:21;32.00;38.80
20091;DHT22;10205;49.678;6.560;2023-05-21T15:35:49;32.00;38.70
20091;DHT22;10205;49.678;6.560;2023-05-21T15:38:17;32.00;38.80
20091;DHT22;10205;49.678;6.560;2023-05-21T15:40:46;32.00;38.70
20091;DHT22;10205;49.678;6.560;2023-05-21T15:43:13;32.00;39.50